Terminal Aerodrome Forecast
Issued by NWS Twin Cities, MN

Home | Current Version | Previous Version | Graphics & Text | Print | Product List | Glossary On
Versions: 1 2 3 4 5 6 7 8 9 10 11 12 13 14 15 16 17 18 19 20 21 22
000
FTUS43 KMPX 300003 AAA
TAFSTC
TAF AMD
KSTC 300003Z 3000/3024 32009KT P6SM VCSH SCT060 SCT120
      TEMPO 3000/3001 3SM -TSRA BKN030CB
     FM300200 32007KT P6SM SCT120
     FM301500 03006KT P6SM SCT060 BKN250=

USA.gov is the U.S. government's official web portal to all federal, state and local government web resources and services.